sensor_id;sensor_type;location;lat;lon;timestamp;P1;durP1;ratioP1;P2;durP2;ratioP2
9775;SDS011;4927;52.472;13.108;2024-01-06T00:00:54;77.60;;;38.25;;
9775;SDS011;4927;52.472;13.108;2024-01-06T00:01:56;85.50;;;38.97;;
9775;SDS011;4927;52.472;13.108;2024-01-06T00:02:58;75.28;;;38.35;;
9775;SDS011;4927;52.472;13.108;2024-01-06T00:04:00;89.97;;;39.47;;
9775;SDS011;4927;52.472;13.108;2024-01-06T00:05:02;84.55;;;37.38;;
9775;SDS011;4927;52.472;13.108;2024-01-06T00:06:05;87.70;;;41.05;;
9775;SDS011;4927;52.472;13.108;2024-01-06T00:07:08;90.12;;;40.92;;
9775;SDS011;4927;52.472;13.108;2024-01-06T00:08:10;80.12;;;39.75;;
9775;SDS011;4927;52.472;13.108;2024-01-06T00:09:12;91.80;;;39.70;;
9775;SDS011;4927;52.472;13.108;2024-01-06T00:10:14;93.25;;;41.05;;
9775;SDS011;4927;52.472;13.108;2024-01-06T00:11:16;81.00;;;39.13;;
9775;SDS011;4927;52.472;13.108;2024-01-06T00:12:18;68.90;;;34.90;;
9775;SDS011;4927;52.472;13.108;2024-01-06T00:13:20;88.50;;;40.75;;
9775;SDS011;4927;52.472;13.108;2024-01-06T00:14:22;93.40;;;39.92;;
9775;SDS011;4927;52.472;13.108;2024-01-06T00:15:24;87.75;;;37.83;;
9775;SDS011;4927;52.472;13.108;2024-01-06T00:16:27;80.72;;;37.05;;
9775;SDS011;4927;52.472;13.108;2024-01-06T00:17:30;82.55;;;38.33;;
9775;SDS011;4927;52.472;13.108;2024-01-06T00:18:32;90.00;;;39.50;;
9775;SDS011;4927;52.472;13.108;2024-01-06T00:19:35;86.15;;;38.58;;
9775;SDS011;4927;52.472;13.108;2024-01-06T00:20:37;88.62;;;39.97;;
9775;SDS011;4927;52.472;13.108;2024-01-06T00:21:39;89.47;;;40.03;;
9775;SDS011;4927;52.472;13.108;2024-01-06T00:22:41;84.10;;;38.42;;
9775;SDS011;4927;52.472;13.108;2024-01-06T00:23:43;78.18;;;37.80;;
9775;SDS011;4927;52.472;13.108;2024-01-06T00:24:45;82.93;;;38.35;;
9775;SDS011;4927;52.472;13.108;2024-01-06T00:25:47;95.85;;;39.92;;
9775;SDS011;4927;52.472;13.108;2024-01-06T00:26:49;75.80;;;37.67;;
9775;SDS011;4927;52.472;13.108;2024-01-06T00:27:51;90.05;;;38.78;;
9775;SDS011;4927;52.472;13.108;2024-01-06T00:28:54;85.12;;;39.55;;
9775;SDS011;4927;52.472;13.108;2024-01-06T00:29:56;91.05;;;41.58;;
9775;SDS011;4927;52.472;13.108;2024-01-06T00:30:59;91.00;;;39.25;;
9775;SDS011;4927;52.472;13.108;2024-01-06T00:32:01;90.10;;;39.53;;
9775;SDS011;4927;52.472;13.108;2024-01-06T00:33:03;89.72;;;38.80;;
9775;SDS011;4927;52.472;13.108;2024-01-06T00:34:06;85.45;;;37.13;;
9775;SDS011;4927;52.472;13.108;2024-01-06T00:35:08;96.78;;;41.10;;
9775;SDS011;4927;52.472;13.108;2024-01-06T00:36:10;85.45;;;37.83;;
9775;SDS011;4927;52.472;13.108;2024-01-06T00:37:12;80.62;;;36.00;;
9775;SDS011;4927;52.472;13.108;2024-01-06T00:38:14;78.10;;;37.75;;
9775;SDS011;4927;52.472;13.108;2024-01-06T00:39:17;78.80;;;36.42;;
9775;SDS011;4927;52.472;13.108;2024-01-06T00:40:19;90.15;;;38.13;;
9775;SDS011;4927;52.472;13.108;2024-01-06T00:41:21;99.07;;;39.22;;
9775;SDS011;4927;52.472;13.108;2024-01-06T00:42:23;79.12;;;35.72;;
9775;SDS011;4927;52.472;13.108;2024-01-06T00:43:24;89.10;;;40.00;;
9775;SDS011;4927;52.472;13.108;2024-01-06T00:44:27;88.00;;;39.92;;
9775;SDS011;4927;52.472;13.108;2024-01-06T00:45:29;95.72;;;40.50;;
9775;SDS011;4927;52.472;13.108;2024-01-06T00:46:32;79.22;;;39.95;;
9775;SDS011;4927;52.472;13.108;2024-01-06T00:47:34;92.40;;;38.30;;
9775;SDS011;4927;52.472;13.108;2024-01-06T00:48:36;91.72;;;41.25;;
9775;SDS011;4927;52.472;13.108;2024-01-06T00:49:37;98.50;;;40.65;;
9775;SDS011;4927;52.472;13.108;2024-01-06T00:50:39;85.15;;;40.42;;
9775;SDS011;4927;52.472;13.108;2024-01-06T00:51:41;91.97;;;42.50;;
9775;SDS011;4927;52.472;13.108;2024-01-06T00:52:43;96.55;;;42.40;;
9775;SDS011;4927;52.472;13.108;2024-01-06T00:53:45;102.60;;;43.15;;
9775;SDS011;4927;52.472;13.108;2024-01-06T00:54:47;91.97;;;41.92;;
9775;SDS011;4927;52.472;13.108;2024-01-06T00:55:49;96.47;;;42.53;;
9775;SDS011;4927;52.472;13.108;2024-01-06T00:56:51;97.50;;;42.78;;
9775;SDS011;4927;52.472;13.108;2024-01-06T00:57:53;119.50;;;44.85;;
9775;SDS011;4927;52.472;13.108;2024-01-06T00:58:55;101.03;;;43.60;;
9775;SDS011;4927;52.472;13.108;2024-01-06T00:59:57;94.55;;;42.42;;
9775;SDS011;4927;52.472;13.108;2024-01-06T01:00:59;85.85;;;41.45;;
9775;SDS011;4927;52.472;13.108;2024-01-06T01:02:02;107.80;;;45.08;;
9775;SDS011;4927;52.472;13.108;2024-01-06T01:03:04;98.20;;;42.42;;
9775;SDS011;4927;52.472;13.108;2024-01-06T01:04:06;101.53;;;43.10;;
9775;SDS011;4927;52.472;13.108;2024-01-06T01:05:08;100.10;;;42.83;;
9775;SDS011;4927;52.472;13.108;2024-01-06T01:06:10;85.75;;;40.30;;
9775;SDS011;4927;52.472;13.108;2024-01-06T01:07:13;96.18;;;41.65;;
9775;SDS011;4927;52.472;13.108;2024-01-06T01:08:15;90.20;;;38.63;;
9775;SDS011;4927;52.472;13.108;2024-01-06T01:09:17;95.00;;;42.05;;
9775;SDS011;4927;52.472;13.108;2024-01-06T01:10:19;87.47;;;41.90;;
9775;SDS011;4927;52.472;13.108;2024-01-06T01:11:21;102.78;;;45.20;;
9775;SDS011;4927;52.472;13.108;2024-01-06T01:12:24;90.45;;;42.38;;
9775;SDS011;4927;52.472;13.108;2024-01-06T01:13:26;92.72;;;42.40;;
9775;SDS011;4927;52.472;13.108;2024-01-06T01:14:28;94.70;;;41.72;;
9775;SDS011;4927;52.472;13.108;2024-01-06T01:15:30;105.03;;;43.72;;
9775;SDS011;4927;52.472;13.108;2024-01-06T01:16:32;94.15;;;42.13;;
9775;SDS011;4927;52.472;13.108;2024-01-06T01:17:35;92.93;;;41.03;;
9775;SDS011;4927;52.472;13.108;2024-01-06T01:18:36;94.40;;;41.30;;
9775;SDS011;4927;52.472;13.108;2024-01-06T01:19:38;102.75;;;43.92;;
9775;SDS011;4927;52.472;13.108;2024-01-06T01:20:40;100.12;;;42.67;;
9775;SDS011;4927;52.472;13.108;2024-01-06T01:21:43;92.07;;;40.70;;
9775;SDS011;4927;52.472;13.108;2024-01-06T01:22:45;101.30;;;42.22;;
9775;SDS011;4927;52.472;13.108;2024-01-06T01:23:48;95.40;;;41.17;;
9775;SDS011;4927;52.472;13.108;2024-01-06T01:24:50;101.78;;;42.85;;
9775;SDS011;4927;52.472;13.108;2024-01-06T01:25:54;93.68;;;42.03;;
9775;SDS011;4927;52.472;13.108;2024-01-06T01:26:54;96.82;;;42.00;;
9775;SDS011;4927;52.472;13.108;2024-01-06T01:27:57;94.03;;;41.25;;
9775;SDS011;4927;52.472;13.108;2024-01-06T01:28:59;96.43;;;40.15;;
9775;SDS011;4927;52.472;13.108;2024-01-06T01:30:01;101.95;;;42.88;;
9775;SDS011;4927;52.472;13.108;2024-01-06T01:31:04;88.80;;;43.05;;
9775;SDS011;4927;52.472;13.108;2024-01-06T01:32:06;102.20;;;42.20;;
9775;SDS011;4927;52.472;13.108;2024-01-06T01:33:08;87.30;;;40.00;;
9775;SDS011;4927;52.472;13.108;2024-01-06T01:34:10;91.20;;;39.38;;
9775;SDS011;4927;52.472;13.108;2024-01-06T01:35:12;87.57;;;39.80;;
9775;SDS011;4927;52.472;13.108;2024-01-06T01:36:15;85.05;;;41.00;;
9775;SDS011;4927;52.472;13.108;2024-01-06T01:37:17;87.78;;;39.63;;
9775;SDS011;4927;52.472;13.108;2024-01-06T01:38:19;91.05;;;41.60;;
9775;SDS011;4927;52.472;13.108;2024-01-06T01:39:23;101.85;;;41.10;;
9775;SDS011;4927;52.472;13.108;2024-01-06T01:40:28;82.10;;;38.25;;
9775;SDS011;4927;52.472;13.108;2024-01-06T01:41:30;89.28;;;39.80;;
9775;SDS011;4927;52.472;13.108;2024-01-06T01:42:33;87.28;;;38.45;;
9775;SDS011;4927;52.472;13.108;2024-01-06T01:43:35;94.47;;;40.17;;
9775;SDS011;4927;52.472;13.108;2024-01-06T01:44:37;87.03;;;39.38;;
9775;SDS011;4927;52.472;13.108;2024-01-06T01:45:39;87.85;;;39.22;;
9775;SDS011;4927;52.472;13.108;2024-01-06T01:46:41;92.15;;;40.80;;
9775;SDS011;4927;52.472;13.108;2024-01-06T01:47:43;94.35;;;40.05;;
9775;SDS011;4927;52.472;13.108;2024-01-06T01:48:45;89.82;;;38.63;;
9775;SDS011;4927;52.472;13.108;2024-01-06T01:49:47;93.90;;;40.28;;
9775;SDS011;4927;52.472;13.108;2024-01-06T01:50:49;79.53;;;37.15;;
9775;SDS011;4927;52.472;13.108;2024-01-06T01:51:52;88.68;;;40.05;;
9775;SDS011;4927;52.472;13.108;2024-01-06T01:52:54;78.60;;;38.35;;
9775;SDS011;4927;52.472;13.108;2024-01-06T01:53:57;79.93;;;37.15;;
9775;SDS011;4927;52.472;13.108;2024-01-06T01:54:59;82.12;;;39.17;;
9775;SDS011;4927;52.472;13.108;2024-01-06T01:56:01;92.60;;;40.17;;
9775;SDS011;4927;52.472;13.108;2024-01-06T01:57:05;78.57;;;37.53;;
9775;SDS011;4927;52.472;13.108;2024-01-06T01:58:08;77.82;;;37.67;;
9775;SDS011;4927;52.472;13.108;2024-01-06T01:59:11;73.22;;;36.80;;
9775;SDS011;4927;52.472;13.108;2024-01-06T02:00:13;88.18;;;38.72;;
9775;SDS011;4927;52.472;13.108;2024-01-06T02:01:15;93.75;;;39.95;;
9775;SDS011;4927;52.472;13.108;2024-01-06T02:02:18;77.68;;;35.10;;
9775;SDS011;4927;52.472;13.108;2024-01-06T02:03:19;77.45;;;37.22;;
9775;SDS011;4927;52.472;13.108;2024-01-06T02:04:22;85.30;;;38.20;;
9775;SDS011;4927;52.472;13.108;2024-01-06T02:05:24;84.50;;;38.40;;
9775;SDS011;4927;52.472;13.108;2024-01-06T02:06:26;84.00;;;37.67;;
9775;SDS011;4927;52.472;13.108;2024-01-06T02:07:28;79.22;;;37.42;;
9775;SDS011;4927;52.472;13.108;2024-01-06T02:08:30;83.95;;;38.33;;
9775;SDS011;4927;52.472;13.108;2024-01-06T02:09:32;72.87;;;36.13;;
9775;SDS011;4927;52.472;13.108;2024-01-06T02:10:34;64.47;;;34.55;;
9775;SDS011;4927;52.472;13.108;2024-01-06T02:11:37;86.05;;;38.05;;
9775;SDS011;4927;52.472;13.108;2024-01-06T02:12:39;79.28;;;37.42;;
9775;SDS011;4927;52.472;13.108;2024-01-06T02:13:42;74.00;;;36.85;;
9775;SDS011;4927;52.472;13.108;2024-01-06T02:14:44;79.60;;;37.22;;
9775;SDS011;4927;52.472;13.108;2024-01-06T02:15:46;85.82;;;35.55;;
9775;SDS011;4927;52.472;13.108;2024-01-06T02:16:48;68.00;;;34.22;;
9775;SDS011;4927;52.472;13.108;2024-01-06T02:17:50;78.12;;;35.92;;
9775;SDS011;4927;52.472;13.108;2024-01-06T02:18:52;79.32;;;36.55;;
9775;SDS011;4927;52.472;13.108;2024-01-06T02:19:54;74.25;;;37.15;;
9775;SDS011;4927;52.472;13.108;2024-01-06T02:20:57;80.68;;;35.95;;
9775;SDS011;4927;52.472;13.108;2024-01-06T02:21:59;79.05;;;34.40;;
9775;SDS011;4927;52.472;13.108;2024-01-06T02:23:00;77.37;;;36.72;;
9775;SDS011;4927;52.472;13.108;2024-01-06T02:24:03;75.53;;;35.20;;
9775;SDS011;4927;52.472;13.108;2024-01-06T02:25:07;80.30;;;38.17;;
9775;SDS011;4927;52.472;13.108;2024-01-06T02:26:09;78.12;;;36.05;;
9775;SDS011;4927;52.472;13.108;2024-01-06T02:27:11;76.72;;;35.97;;
9775;SDS011;4927;52.472;13.108;2024-01-06T02:28:13;83.35;;;36.90;;
9775;SDS011;4927;52.472;13.108;2024-01-06T02:29:16;75.95;;;37.65;;
9775;SDS011;4927;52.472;13.108;2024-01-06T02:30:18;73.62;;;34.50;;
9775;SDS011;4927;52.472;13.108;2024-01-06T02:31:21;85.12;;;35.38;;
9775;SDS011;4927;52.472;13.108;2024-01-06T02:32:22;83.37;;;36.53;;
9775;SDS011;4927;52.472;13.108;2024-01-06T02:33:25;76.80;;;36.63;;
9775;SDS011;4927;52.472;13.108;2024-01-06T02:34:27;77.55;;;35.03;;
9775;SDS011;4927;52.472;13.108;2024-01-06T02:35:29;79.35;;;35.38;;
9775;SDS011;4927;52.472;13.108;2024-01-06T02:36:31;74.07;;;35.40;;
9775;SDS011;4927;52.472;13.108;2024-01-06T02:37:33;68.82;;;33.20;;
9775;SDS011;4927;52.472;13.108;2024-01-06T02:38:35;79.78;;;36.88;;
9775;SDS011;4927;52.472;13.108;2024-01-06T02:39:37;71.60;;;34.60;;
9775;SDS011;4927;52.472;13.108;2024-01-06T02:40:39;72.97;;;36.63;;
9775;SDS011;4927;52.472;13.108;2024-01-06T02:41:41;89.85;;;33.95;;
9775;SDS011;4927;52.472;13.108;2024-01-06T02:42:43;76.55;;;35.78;;
9775;SDS011;4927;52.472;13.108;2024-01-06T02:43:46;70.75;;;34.15;;
9775;SDS011;4927;52.472;13.108;2024-01-06T02:44:48;74.00;;;35.15;;
9775;SDS011;4927;52.472;13.108;2024-01-06T02:45:50;65.12;;;34.17;;
9775;SDS011;4927;52.472;13.108;2024-01-06T02:46:52;68.07;;;31.30;;
9775;SDS011;4927;52.472;13.108;2024-01-06T02:47:54;71.10;;;32.80;;
9775;SDS011;4927;52.472;13.108;2024-01-06T02:48:56;71.32;;;32.50;;
9775;SDS011;4927;52.472;13.108;2024-01-06T02:49:59;66.95;;;33.40;;
9775;SDS011;4927;52.472;13.108;2024-01-06T02:51:01;73.68;;;34.90;;
9775;SDS011;4927;52.472;13.108;2024-01-06T02:52:04;74.53;;;35.45;;
9775;SDS011;4927;52.472;13.108;2024-01-06T02:53:06;72.25;;;34.28;;
9775;SDS011;4927;52.472;13.108;2024-01-06T02:54:08;69.03;;;34.67;;
9775;SDS011;4927;52.472;13.108;2024-01-06T02:55:11;73.07;;;34.25;;
9775;SDS011;4927;52.472;13.108;2024-01-06T02:56:13;81.78;;;34.95;;
9775;SDS011;4927;52.472;13.108;2024-01-06T02:57:15;65.75;;;33.53;;
9775;SDS011;4927;52.472;13.108;2024-01-06T02:58:17;78.80;;;35.95;;
9775;SDS011;4927;52.472;13.108;2024-01-06T02:59:19;58.63;;;33.60;;
9775;SDS011;4927;52.472;13.108;2024-01-06T03:00:21;73.80;;;34.63;;
9775;SDS011;4927;52.472;13.108;2024-01-06T03:01:23;69.10;;;34.33;;
9775;SDS011;4927;52.472;13.108;2024-01-06T03:02:25;70.78;;;33.88;;
9775;SDS011;4927;52.472;13.108;2024-01-06T03:03:27;75.57;;;36.05;;
9775;SDS011;4927;52.472;13.108;2024-01-06T03:04:29;75.62;;;33.80;;
9775;SDS011;4927;52.472;13.108;2024-01-06T03:05:31;61.70;;;33.22;;
9775;SDS011;4927;52.472;13.108;2024-01-06T03:06:33;64.78;;;31.92;;
9775;SDS011;4927;52.472;13.108;2024-01-06T03:07:35;66.40;;;33.95;;
9775;SDS011;4927;52.472;13.108;2024-01-06T03:08:37;75.80;;;35.67;;
9775;SDS011;4927;52.472;13.108;2024-01-06T03:09:39;68.07;;;34.25;;
9775;SDS011;4927;52.472;13.108;2024-01-06T03:10:41;73.80;;;33.60;;
9775;SDS011;4927;52.472;13.108;2024-01-06T03:11:44;69.18;;;34.33;;
9775;SDS011;4927;52.472;13.108;2024-01-06T03:12:46;79.05;;;34.15;;
9775;SDS011;4927;52.472;13.108;2024-01-06T03:13:49;73.40;;;33.80;;
9775;SDS011;4927;52.472;13.108;2024-01-06T03:14:51;68.60;;;33.38;;
9775;SDS011;4927;52.472;13.108;2024-01-06T03:15:53;70.68;;;34.42;;
9775;SDS011;4927;52.472;13.108;2024-01-06T03:16:55;71.93;;;35.42;;
9775;SDS011;4927;52.472;13.108;2024-01-06T03:17:57;70.68;;;33.92;;
9775;SDS011;4927;52.472;13.108;2024-01-06T03:18:59;76.50;;;36.80;;
9775;SDS011;4927;52.472;13.108;2024-01-06T03:20:01;70.97;;;35.50;;
9775;SDS011;4927;52.472;13.108;2024-01-06T03:21:04;68.05;;;33.15;;
9775;SDS011;4927;52.472;13.108;2024-01-06T03:22:07;77.45;;;33.75;;
9775;SDS011;4927;52.472;13.108;2024-01-06T03:23:09;80.00;;;35.17;;
9775;SDS011;4927;52.472;13.108;2024-01-06T03:24:12;81.28;;;36.50;;
9775;SDS011;4927;52.472;13.108;2024-01-06T03:25:14;72.53;;;34.85;;
9775;SDS011;4927;52.472;13.108;2024-01-06T03:26:17;61.15;;;32.53;;
9775;SDS011;4927;52.472;13.108;2024-01-06T03:27:19;73.47;;;33.88;;
9775;SDS011;4927;52.472;13.108;2024-01-06T03:28:21;57.20;;;29.70;;
9775;SDS011;4927;52.472;13.108;2024-01-06T03:29:23;84.97;;;35.85;;
9775;SDS011;4927;52.472;13.108;2024-01-06T03:30:24;67.07;;;32.75;;
9775;SDS011;4927;52.472;13.108;2024-01-06T03:31:26;75.57;;;33.65;;
9775;SDS011;4927;52.472;13.108;2024-01-06T03:32:28;74.35;;;34.55;;
9775;SDS011;4927;52.472;13.108;2024-01-06T03:33:30;75.55;;;35.63;;
9775;SDS011;4927;52.472;13.108;2024-01-06T03:34:32;74.90;;;34.90;;
9775;SDS011;4927;52.472;13.108;2024-01-06T03:35:34;75.70;;;35.42;;
9775;SDS011;4927;52.472;13.108;2024-01-06T03:36:38;75.07;;;32.85;;
9775;SDS011;4927;52.472;13.108;2024-01-06T03:37:40;73.18;;;34.17;;
9775;SDS011;4927;52.472;13.108;2024-01-06T03:38:43;75.90;;;34.13;;
9775;SDS011;4927;52.472;13.108;2024-01-06T03:39:45;78.20;;;35.28;;
9775;SDS011;4927;52.472;13.108;2024-01-06T03:40:47;70.93;;;33.28;;
9775;SDS011;4927;52.472;13.108;2024-01-06T03:41:49;72.37;;;34.63;;
9775;SDS011;4927;52.472;13.108;2024-01-06T03:42:51;67.87;;;32.85;;
9775;SDS011;4927;52.472;13.108;2024-01-06T03:43:53;76.78;;;35.25;;
9775;SDS011;4927;52.472;13.108;2024-01-06T03:44:56;71.32;;;34.60;;
9775;SDS011;4927;52.472;13.108;2024-01-06T03:45:58;65.20;;;32.80;;
9775;SDS011;4927;52.472;13.108;2024-01-06T03:47:00;74.12;;;34.67;;
9775;SDS011;4927;52.472;13.108;2024-01-06T03:48:02;70.60;;;34.28;;
9775;SDS011;4927;52.472;13.108;2024-01-06T03:49:05;65.40;;;34.15;;
9775;SDS011;4927;52.472;13.108;2024-01-06T03:50:07;64.53;;;32.88;;
9775;SDS011;4927;52.472;13.108;2024-01-06T03:51:10;74.70;;;35.05;;
9775;SDS011;4927;52.472;13.108;2024-01-06T03:52:12;74.78;;;33.72;;
9775;SDS011;4927;52.472;13.108;2024-01-06T03:53:14;71.30;;;32.78;;
9775;SDS011;4927;52.472;13.108;2024-01-06T03:54:16;89.65;;;34.55;;
9775;SDS011;4927;52.472;13.108;2024-01-06T03:55:19;75.78;;;34.60;;
9775;SDS011;4927;52.472;13.108;2024-01-06T03:56:21;72.00;;;33.17;;
9775;SDS011;4927;52.472;13.108;2024-01-06T03:57:24;72.70;;;34.25;;
9775;SDS011;4927;52.472;13.108;2024-01-06T03:58:26;73.32;;;33.28;;
9775;SDS011;4927;52.472;13.108;2024-01-06T03:59:29;68.37;;;33.97;;
9775;SDS011;4927;52.472;13.108;2024-01-06T04:00:31;75.55;;;33.83;;
9775;SDS011;4927;52.472;13.108;2024-01-06T04:01:33;76.45;;;33.28;;
9775;SDS011;4927;52.472;13.108;2024-01-06T04:02:35;73.45;;;34.10;;
9775;SDS011;4927;52.472;13.108;2024-01-06T04:03:38;67.45;;;34.95;;
9775;SDS011;4927;52.472;13.108;2024-01-06T04:04:40;69.82;;;35.00;;
9775;SDS011;4927;52.472;13.108;2024-01-06T04:05:42;79.12;;;36.50;;
9775;SDS011;4927;52.472;13.108;2024-01-06T04:06:44;79.40;;;35.47;;
9775;SDS011;4927;52.472;13.108;2024-01-06T04:07:46;68.47;;;34.00;;
9775;SDS011;4927;52.472;13.108;2024-01-06T04:08:48;67.80;;;32.10;;
9775;SDS011;4927;52.472;13.108;2024-01-06T04:09:50;68.68;;;34.60;;
9775;SDS011;4927;52.472;13.108;2024-01-06T04:10:52;64.22;;;33.38;;
9775;SDS011;4927;52.472;13.108;2024-01-06T04:11:54;79.10;;;35.40;;
9775;SDS011;4927;52.472;13.108;2024-01-06T04:12:56;71.78;;;35.05;;
9775;SDS011;4927;52.472;13.108;2024-01-06T04:13:59;73.55;;;35.28;;
9775;SDS011;4927;52.472;13.108;2024-01-06T04:15:01;71.85;;;33.83;;
9775;SDS011;4927;52.472;13.108;2024-01-06T04:16:04;89.90;;;36.13;;
9775;SDS011;4927;52.472;13.108;2024-01-06T04:17:07;69.10;;;33.60;;
9775;SDS011;4927;52.472;13.108;2024-01-06T04:18:09;68.32;;;35.83;;
9775;SDS011;4927;52.472;13.108;2024-01-06T04:19:11;80.53;;;35.10;;
9775;SDS011;4927;52.472;13.108;2024-01-06T04:20:13;76.97;;;35.33;;
9775;SDS011;4927;52.472;13.108;2024-01-06T04:21:16;70.55;;;34.58;;
9775;SDS011;4927;52.472;13.108;2024-01-06T04:22:18;65.87;;;33.42;;
9775;SDS011;4927;52.472;13.108;2024-01-06T04:23:20;82.15;;;34.00;;
9775;SDS011;4927;52.472;13.108;2024-01-06T04:24:22;62.60;;;32.10;;
9775;SDS011;4927;52.472;13.108;2024-01-06T04:25:25;76.22;;;36.28;;
9775;SDS011;4927;52.472;13.108;2024-01-06T04:26:27;70.05;;;34.40;;
9775;SDS011;4927;52.472;13.108;2024-01-06T04:27:30;79.75;;;34.75;;
9775;SDS011;4927;52.472;13.108;2024-01-06T04:28:33;71.60;;;35.63;;
9775;SDS011;4927;52.472;13.108;2024-01-06T04:29:35;88.15;;;36.08;;
9775;SDS011;4927;52.472;13.108;2024-01-06T04:30:37;70.87;;;33.45;;
9775;SDS011;4927;52.472;13.108;2024-01-06T04:31:40;70.32;;;33.00;;
9775;SDS011;4927;52.472;13.108;2024-01-06T04:32:41;78.22;;;33.30;;
9775;SDS011;4927;52.472;13.108;2024-01-06T04:33:43;78.15;;;33.85;;
9775;SDS011;4927;52.472;13.108;2024-01-06T04:34:45;70.40;;;34.00;;
9775;SDS011;4927;52.472;13.108;2024-01-06T04:35:47;67.22;;;33.85;;
9775;SDS011;4927;52.472;13.108;2024-01-06T04:36:49;67.80;;;31.75;;
9775;SDS011;4927;52.472;13.108;2024-01-06T04:37:51;75.40;;;32.53;;
9775;SDS011;4927;52.472;13.108;2024-01-06T04:38:54;67.85;;;31.80;;
9775;SDS011;4927;52.472;13.108;2024-01-06T04:39:57;73.10;;;34.35;;
9775;SDS011;4927;52.472;13.108;2024-01-06T04:40:59;74.30;;;33.45;;
9775;SDS011;4927;52.472;13.108;2024-01-06T04:42:02;67.30;;;33.47;;
9775;SDS011;4927;52.472;13.108;2024-01-06T04:43:05;65.30;;;33.53;;
9775;SDS011;4927;52.472;13.108;2024-01-06T04:44:09;79.87;;;33.35;;
9775;SDS011;4927;52.472;13.108;2024-01-06T04:45:12;70.70;;;33.47;;
9775;SDS011;4927;52.472;13.108;2024-01-06T04:46:14;70.97;;;32.95;;
9775;SDS011;4927;52.472;13.108;2024-01-06T04:47:17;80.70;;;34.25;;
9775;SDS011;4927;52.472;13.108;2024-01-06T04:48:19;65.72;;;32.63;;
9775;SDS011;4927;52.472;13.108;2024-01-06T04:49:21;80.97;;;33.30;;
9775;SDS011;4927;52.472;13.108;2024-01-06T04:50:23;69.68;;;30.88;;
9775;SDS011;4927;52.472;13.108;2024-01-06T04:51:25;72.70;;;34.00;;
9775;SDS011;4927;52.472;13.108;2024-01-06T04:52:27;68.22;;;33.60;;
9775;SDS011;4927;52.472;13.108;2024-01-06T04:53:29;59.30;;;30.25;;
9775;SDS011;4927;52.472;13.108;2024-01-06T04:54:31;77.43;;;32.40;;
9775;SDS011;4927;52.472;13.108;2024-01-06T04:55:34;66.45;;;31.90;;
9775;SDS011;4927;52.472;13.108;2024-01-06T04:56:36;77.68;;;33.45;;
9775;SDS011;4927;52.472;13.108;2024-01-06T04:58:48;68.78;;;32.00;;
9775;SDS011;4927;52.472;13.108;2024-01-06T04:59:50;77.60;;;34.22;;
9775;SDS011;4927;52.472;13.108;2024-01-06T05:00:52;70.40;;;33.40;;
9775;SDS011;4927;52.472;13.108;2024-01-06T05:01:54;70.22;;;32.42;;
9775;SDS011;4927;52.472;13.108;2024-01-06T05:02:56;67.12;;;31.80;;
9775;SDS011;4927;52.472;13.108;2024-01-06T05:03:59;69.57;;;32.80;;
9775;SDS011;4927;52.472;13.108;2024-01-06T05:05:01;67.30;;;32.47;;
9775;SDS011;4927;52.472;13.108;2024-01-06T05:06:03;73.93;;;32.67;;
9775;SDS011;4927;52.472;13.108;2024-01-06T05:07:05;73.03;;;32.60;;
9775;SDS011;4927;52.472;13.108;2024-01-06T05:08:07;65.90;;;33.17;;
9775;SDS011;4927;52.472;13.108;2024-01-06T05:09:10;77.25;;;33.50;;
9775;SDS011;4927;52.472;13.108;2024-01-06T05:10:12;75.40;;;33.17;;
9775;SDS011;4927;52.472;13.108;2024-01-06T05:11:14;76.80;;;31.45;;
9775;SDS011;4927;52.472;13.108;2024-01-06T05:12:17;69.15;;;33.28;;
9775;SDS011;4927;52.472;13.108;2024-01-06T05:13:19;66.93;;;30.77;;
9775;SDS011;4927;52.472;13.108;2024-01-06T05:14:21;79.45;;;35.17;;
9775;SDS011;4927;52.472;13.108;2024-01-06T05:15:23;64.37;;;32.13;;
9775;SDS011;4927;52.472;13.108;2024-01-06T05:16:25;79.07;;;33.53;;
9775;SDS011;4927;52.472;13.108;2024-01-06T05:17:27;81.10;;;33.78;;
9775;SDS011;4927;52.472;13.108;2024-01-06T05:18:29;70.95;;;33.50;;
9775;SDS011;4927;52.472;13.108;2024-01-06T05:19:31;80.50;;;34.50;;
9775;SDS011;4927;52.472;13.108;2024-01-06T05:20:33;67.78;;;32.15;;
9775;SDS011;4927;52.472;13.108;2024-01-06T05:21:35;71.55;;;32.22;;
9775;SDS011;4927;52.472;13.108;2024-01-06T05:22:38;69.43;;;30.90;;
9775;SDS011;4927;52.472;13.108;2024-01-06T05:23:41;79.70;;;32.95;;
9775;SDS011;4927;52.472;13.108;2024-01-06T05:24:43;69.80;;;32.70;;
9775;SDS011;4927;52.472;13.108;2024-01-06T05:25:45;74.00;;;32.85;;
9775;SDS011;4927;52.472;13.108;2024-01-06T05:26:47;73.95;;;32.65;;
9775;SDS011;4927;52.472;13.108;2024-01-06T05:27:49;71.90;;;32.50;;
9775;SDS011;4927;52.472;13.108;2024-01-06T05:28:51;78.60;;;34.45;;
9775;SDS011;4927;52.472;13.108;2024-01-06T05:29:53;68.40;;;30.55;;
9775;SDS011;4927;52.472;13.108;2024-01-06T05:30:55;68.93;;;33.60;;
9775;SDS011;4927;52.472;13.108;2024-01-06T05:31:57;68.15;;;33.10;;
9775;SDS011;4927;52.472;13.108;2024-01-06T05:33:00;80.30;;;33.00;;
9775;SDS011;4927;52.472;13.108;2024-01-06T05:34:01;89.07;;;35.22;;
9775;SDS011;4927;52.472;13.108;2024-01-06T05:35:04;71.32;;;31.37;;
9775;SDS011;4927;52.472;13.108;2024-01-06T05:36:07;77.70;;;33.40;;
9775;SDS011;4927;52.472;13.108;2024-01-06T05:37:09;84.45;;;33.90;;
9775;SDS011;4927;52.472;13.108;2024-01-06T05:38:11;72.55;;;34.08;;
9775;SDS011;4927;52.472;13.108;2024-01-06T05:39:13;72.12;;;33.40;;
9775;SDS011;4927;52.472;13.108;2024-01-06T05:40:15;83.43;;;34.42;;
9775;SDS011;4927;52.472;13.108;2024-01-06T05:41:17;77.05;;;32.30;;
9775;SDS011;4927;52.472;13.108;2024-01-06T05:42:19;84.15;;;34.40;;
9775;SDS011;4927;52.472;13.108;2024-01-06T05:43:21;71.97;;;33.13;;
9775;SDS011;4927;52.472;13.108;2024-01-06T05:44:23;86.18;;;34.63;;
9775;SDS011;4927;52.472;13.108;2024-01-06T05:45:25;72.22;;;33.08;;
9775;SDS011;4927;52.472;13.108;2024-01-06T05:46:28;75.25;;;32.67;;
9775;SDS011;4927;52.472;13.108;2024-01-06T05:47:30;76.70;;;33.30;;
9775;SDS011;4927;52.472;13.108;2024-01-06T05:48:32;82.95;;;34.42;;
9775;SDS011;4927;52.472;13.108;2024-01-06T05:49:34;75.62;;;32.03;;
9775;SDS011;4927;52.472;13.108;2024-01-06T05:50:38;78.57;;;33.13;;
9775;SDS011;4927;52.472;13.108;2024-01-06T05:51:44;78.93;;;35.33;;
9775;SDS011;4927;52.472;13.108;2024-01-06T05:52:46;69.10;;;33.25;;
9775;SDS011;4927;52.472;13.108;2024-01-06T05:53:48;83.22;;;33.60;;
9775;SDS011;4927;52.472;13.108;2024-01-06T05:54:51;71.60;;;34.25;;
9775;SDS011;4927;52.472;13.108;2024-01-06T05:55:52;70.97;;;34.00;;
9775;SDS011;4927;52.472;13.108;2024-01-06T05:56:55;73.05;;;32.75;;
9775;SDS011;4927;52.472;13.108;2024-01-06T05:57:56;76.28;;;34.13;;
9775;SDS011;4927;52.472;13.108;2024-01-06T05:58:59;74.70;;;33.25;;
9775;SDS011;4927;52.472;13.108;2024-01-06T06:00:02;78.43;;;33.10;;
9775;SDS011;4927;52.472;13.108;2024-01-06T06:01:05;70.90;;;33.58;;
9775;SDS011;4927;52.472;13.108;2024-01-06T06:02:07;69.15;;;32.15;;
9775;SDS011;4927;52.472;13.108;2024-01-06T06:03:10;77.20;;;34.17;;
9775;SDS011;4927;52.472;13.108;2024-01-06T06:04:12;74.07;;;33.03;;
9775;SDS011;4927;52.472;13.108;2024-01-06T06:05:14;70.87;;;34.28;;
9775;SDS011;4927;52.472;13.108;2024-01-06T06:06:16;78.70;;;33.25;;
9775;SDS011;4927;52.472;13.108;2024-01-06T06:07:18;78.35;;;35.53;;
9775;SDS011;4927;52.472;13.108;2024-01-06T06:08:20;88.07;;;35.47;;
9775;SDS011;4927;52.472;13.108;2024-01-06T06:09:22;76.90;;;34.72;;
9775;SDS011;4927;52.472;13.108;2024-01-06T06:10:24;73.50;;;34.83;;